Time;durP1;ratioP1;P1;durP2;ratioP2;P2;SDS_P1;SDS_P2;PMS_P1;PMS_P2;Temp;Humidity;BMP_temperature;BMP_pressure;BME280_temperature;BME280_humidity;BME280_pressure;Samples;Min_cycle;Max_cycle;Signal;HPM_P1;HPM_P2
2022/11/05 00:09:28;;;;;;;;;;;22.00;91.30;;;;;;5034157;28;19924;-69
2022/11/05 00:17:29;;;;;;;;;;;22.20;91.10;;;;;;5020993;28;19916;-71
2022/11/05 00:19:56;;;;;;;;;;;22.30;90.80;;;;;;5032599;28;19948;-70
2022/11/05 00:25:13;;;;;;;;;;;22.50;90.10;;;;;;5020565;28;19959;-70
2022/11/05 00:27:40;;;;;;;;;;;22.70;90.00;;;;;;5020415;28;19951;-67
2022/11/05 00:30:08;;;;;;;;;;;22.70;90.10;;;;;;5020690;28;19913;-71
2022/11/05 00:32:34;;;;;;;;;;;22.70;90.00;;;;;;5029877;28;19939;-70
2022/11/05 00:35:01;;;;;;;;;;;22.60;89.40;;;;;;5045206;28;19919;-69
2022/11/05 00:37:28;;;;;;;;;;;22.80;89.50;;;;;;5043793;28;19913;-69
2022/11/05 00:39:54;;;;;;;;;;;23.10;87.30;;;;;;5044171;28;20354;-71
2022/11/05 00:45:06;;;;;;;;;;;23.40;86.80;;;;;;5044920;28;19931;-71
2022/11/05 00:50:18;;;;;;;;;;;23.40;86.20;;;;;;5031237;28;19928;-68
2022/11/05 00:52:54;;;;;;;;;;;23.50;86.10;;;;;;5043546;28;19994;-68
2022/11/05 00:55:41;;;;;;;;;;;23.50;86.20;;;;;;5025722;28;19912;-68
2022/11/05 00:58:10;;;;;;;;;;;23.70;85.90;;;;;;5038858;28;19909;-69
2022/11/05 01:00:39;;;;;;;;;;;23.50;85.60;;;;;;5043790;28;19913;-70
2022/11/05 01:03:08;;;;;;;;;;;23.60;85.20;;;;;;5034377;28;19917;-68
2022/11/05 01:05:37;;;;;;;;;;;23.70;85.50;;;;;;5043494;28;19919;-68
2022/11/05 01:08:04;;;;;;;;;;;23.80;85.60;;;;;;5024812;28;19932;-66
2022/11/05 01:10:30;;;;;;;;;;;23.80;83.90;;;;;;5042429;28;20400;-67
2022/11/05 01:12:57;;;;;;;;;;;23.80;85.30;;;;;;5043280;28;19947;-69
2022/11/05 01:15:24;;;;;;;;;;;23.90;85.50;;;;;;5029726;28;19970;-68
2022/11/05 01:17:51;;;;;;;;;;;23.90;84.20;;;;;;5041077;28;20315;-69
2022/11/05 01:20:17;;;;;;;;;;;24.00;85.70;;;;;;5040404;28;19975;-67
2022/11/05 01:22:44;;;;;;;;;;;23.70;84.70;;;;;;5043803;28;19913;-68
2022/11/05 01:25:11;;;;;;;;;;;23.70;83.90;;;;;;5043206;28;19995;-69
2022/11/05 01:27:38;;;;;;;;;;;24.00;82.70;;;;;;5029612;28;19909;-67
2022/11/05 01:30:06;;;;;;;;;;;24.20;83.10;;;;;;5040832;28;19909;-69
2022/11/05 01:32:34;;;;;;;;;;;24.40;83.20;;;;;;5024494;28;19909;-69
2022/11/05 01:35:00;;;;;;;;;;;24.70;81.70;;;;;;5043267;28;20046;-68
2022/11/05 01:37:27;;;;;;;;;;;24.90;80.00;;;;;;5042390;28;20374;-69
2022/11/05 01:39:54;;;;;;;;;;;25.00;78.90;;;;;;5041079;28;19909;-67
2022/11/05 01:42:22;;;;;;;;;;;25.20;79.80;;;;;;5041714;28;20485;-73
2022/11/05 01:45:02;;;;;;;;;;;25.20;80.00;;;;;;5036459;28;19959;-69
2022/11/05 01:47:29;;;;;;;;;;;25.10;80.50;;;;;;5041966;28;19932;-70
2022/11/05 01:49:57;;;;;;;;;;;25.30;80.00;;;;;;5042652;28;19909;-70
2022/11/05 01:52:24;;;;;;;;;;;25.30;80.50;;;;;;5042142;28;19920;-70
2022/11/05 01:54:51;;;;;;;;;;;25.50;79.30;;;;;;5042948;28;19917;-69
2022/11/05 01:57:17;;;;;;;;;;;25.50;79.90;;;;;;5043015;28;19908;-69
2022/11/05 01:59:47;;;;;;;;;;;25.60;79.30;;;;;;5028116;28;19978;-67
2022/11/05 02:02:14;;;;;;;;;;;25.60;78.00;;;;;;5022650;28;19920;-66
2022/11/05 02:04:49;;;;;;;;;;;25.50;79.80;;;;;;5022836;28;20346;-69
2022/11/05 02:07:16;;;;;;;;;;;25.30;78.00;;;;;;5036667;28;20131;-68
2022/11/05 02:09:52;;;;;;;;;;;25.10;79.20;;;;;;5041279;28;19909;-68
2022/11/05 02:12:20;;;;;;;;;;;25.30;80.10;;;;;;5041901;28;19960;-69
2022/11/05 02:14:46;;;;;;;;;;;25.50;78.80;;;;;;5042120;28;20369;-68
2022/11/05 02:17:23;;;;;;;;;;;25.40;78.30;;;;;;5023235;28;19960;-69
2022/11/05 02:20:11;;;;;;;;;;;25.60;78.30;;;;;;5022465;28;19983;-68
2022/11/05 02:23:03;;;;;;;;;;;25.80;77.40;;;;;;5022266;28;19974;-70
2022/11/05 02:25:48;;;;;;;;;;;26.10;77.90;;;;;;5022407;28;19909;-68
2022/11/05 02:28:23;;;;;;;;;;;26.10;77.70;;;;;;5022610;28;19952;-71
2022/11/05 02:30:56;;;;;;;;;;;26.40;75.50;;;;;;5023227;28;19956;-71
2022/11/05 02:33:28;;;;;;;;;;;26.80;74.60;;;;;;5023008;28;19917;-69
2022/11/05 02:35:54;;;;;;;;;;;26.40;76.00;;;;;;5023269;28;19909;-70
2022/11/05 02:38:39;;;;;;;;;;;26.30;75.30;;;;;;5022429;28;19910;-73
2022/11/05 02:41:23;;;;;;;;;;;26.30;76.20;;;;;;5038942;28;19940;-67
2022/11/05 02:43:50;;;;;;;;;;;26.70;75.80;;;;;;5042663;28;20003;-70
2022/11/05 02:46:34;;;;;;;;;;;27.20;74.20;;;;;;5041884;28;20506;-70
2022/11/05 02:49:01;;;;;;;;;;;27.30;74.90;;;;;;5041473;28;20113;-72
2022/11/05 02:51:35;;;;;;;;;;;28.30;72.50;;;;;;5042243;28;19909;-71
2022/11/05 02:54:02;;;;;;;;;;;28.50;74.20;;;;;;5041047;28;19917;-71
2022/11/05 02:56:31;;;;;;;;;;;29.50;70.90;;;;;;5042044;28;20384;-70
2022/11/05 02:58:58;;;;;;;;;;;30.50;68.50;;;;;;5042228;28;20003;-69
2022/11/05 03:01:24;;;;;;;;;;;30.40;68.60;;;;;;5042462;28;19913;-70
2022/11/05 03:03:53;;;;;;;;;;;30.40;67.80;;;;;;5041694;28;19999;-69
2022/11/05 03:06:31;;;;;;;;;;;30.40;67.00;;;;;;5035666;28;19920;-67
2022/11/05 03:09:16;;;;;;;;;;;30.90;68.80;;;;;;5031048;28;19920;-67
2022/11/05 03:11:57;;;;;;;;;;;31.20;65.20;;;;;;5022662;28;19964;-67
2022/11/05 03:14:31;;;;;;;;;;;30.30;65.80;;;;;;5041701;28;19921;-67
2022/11/05 03:17:09;;;;;;;;;;;30.80;66.00;;;;;;5041344;28;19909;-68
2022/11/05 03:19:38;;;;;;;;;;;31.00;65.50;;;;;;5039861;28;19913;-69
2022/11/05 03:22:11;;;;;;;;;;;31.80;64.40;;;;;;5040793;28;19925;-69
2022/11/05 03:24:40;;;;;;;;;;;32.20;62.60;;;;;;5040253;28;19909;-70
2022/11/05 03:27:11;;;;;;;;;;;32.00;63.40;;;;;;5040441;28;19912;-69
2022/11/05 03:29:41;;;;;;;;;;;31.90;63.40;;;;;;5040412;28;19913;-69
2022/11/05 03:32:09;;;;;;;;;;;32.50;62.00;;;;;;5040991;28;19909;-69
2022/11/05 03:34:39;;;;;;;;;;;33.30;60.60;;;;;;5040395;28;20015;-71
2022/11/05 03:37:07;;;;;;;;;;;33.10;61.00;;;;;;5040674;28;19913;-70
2022/11/05 03:39:39;;;;;;;;;;;33.00;61.50;;;;;;5040812;28;19919;-66
2022/11/05 03:42:09;;;;;;;;;;;33.30;60.30;;;;;;5032370;28;19983;-67
2022/11/05 03:44:38;;;;;;;;;;;33.40;59.90;;;;;;5021215;28;20266;-70
2022/11/05 03:47:06;;;;;;;;;;;33.20;60.00;;;;;;5030467;28;19909;-68
2022/11/05 03:49:35;;;;;;;;;;;33.60;59.20;;;;;;5043867;28;20369;-68
2022/11/05 03:52:16;;;;;;;;;;;34.00;58.70;;;;;;5042977;28;19916;-68
2022/11/05 03:54:43;;;;;;;;;;;33.00;61.00;;;;;;5060753;28;20009;-69
2022/11/05 03:57:12;;;;;;;;;;;33.40;60.50;;;;;;5050021;28;19913;-69
2022/11/05 03:59:43;;;;;;;;;;;34.20;59.00;;;;;;5040240;28;19908;-70
2022/11/05 04:02:11;;;;;;;;;;;34.20;58.60;;;;;;5022008;28;20035;-70
2022/11/05 04:04:38;;;;;;;;;;;32.50;60.60;;;;;;5040893;28;19955;-70
2022/11/05 04:15:19;;;;;;;;;;;32.80;62.00;;;;;;5043941;28;19932;-69
2022/11/05 04:17:46;;;;;;;;;;;33.50;60.20;;;;;;5026545;28;20377;-71
2022/11/05 04:25:46;;;;;;;;;;;32.40;62.40;;;;;;5045630;28;19951;-69
2022/11/05 04:28:12;;;;;;;;;;;32.20;61.60;;;;;;5043689;28;20266;-72
2022/11/05 04:30:39;;;;;;;;;;;32.80;61.30;;;;;;5044726;28;19909;-71
2022/11/05 04:33:09;;;;;;;;;;;33.20;61.20;;;;;;5044574;28;19986;-71
2022/11/05 04:35:46;;;;;;;;;;;33.60;60.70;;;;;;5044197;28;20129;-70
2022/11/05 04:38:14;;;;;;;;;;;34.40;59.60;;;;;;5043694;28;19917;-70
2022/11/05 04:40:41;;;;;;;;;;;34.00;59.80;;;;;;5044380;28;19941;-70
2022/11/05 04:43:08;;;;;;;;;;;34.10;59.70;;;;;;5043353;28;19920;-70
2022/11/05 04:45:35;;;;;;;;;;;33.80;60.10;;;;;;5042448;28;19924;-70
2022/11/05 04:48:02;;;;;;;;;;;34.40;59.40;;;;;;5042885;28;19912;-69
2022/11/05 04:50:29;;;;;;;;;;;34.30;58.70;;;;;;5043733;28;19916;-69
2022/11/05 04:52:56;;;;;;;;;;;32.80;60.50;;;;;;5044153;28;19916;-68
2022/11/05 04:55:23;;;;;;;;;;;32.00;60.90;;;;;;5043052;28;20420;-67
2022/11/05 04:57:50;;;;;;;;;;;32.90;61.00;;;;;;5043178;28;20370;-67
2022/11/05 05:00:18;;;;;;;;;;;33.30;59.80;;;;;;5043319;28;19909;-66
2022/11/05 05:02:45;;;;;;;;;;;33.00;60.10;;;;;;5044722;28;19944;-68
2022/11/05 05:05:12;;;;;;;;;;;32.40;61.30;;;;;;5043794;28;19995;-69
2022/11/05 05:07:40;;;;;;;;;;;32.20;62.90;;;;;;5042853;28;20613;-70
2022/11/05 05:10:07;;;;;;;;;;;33.10;60.80;;;;;;5042914;28;19908;-67
2022/11/05 05:12:34;;;;;;;;;;;31.70;62.90;;;;;;5043822;28;19913;-69
2022/11/05 05:15:01;;;;;;;;;;;31.60;64.90;;;;;;5043922;28;19917;-67
2022/11/05 05:17:27;;;;;;;;;;;31.70;63.10;;;;;;5041469;28;20583;-69
2022/11/05 05:22:39;;;;;;;;;;;32.40;62.20;;;;;;5028481;28;19986;-71
2022/11/05 05:25:05;;;;;;;;;;;31.90;63.00;;;;;;5043446;28;19948;-70
2022/11/05 05:27:32;;;;;;;;;;;31.60;64.10;;;;;;5040234;28;19912;-68
2022/11/05 05:29:59;;;;;;;;;;;31.90;61.70;;;;;;5043233;28;20320;-70
2022/11/05 05:32:26;;;;;;;;;;;31.40;62.70;;;;;;5042269;28;20372;-70
2022/11/05 05:34:53;;;;;;;;;;;31.50;62.30;;;;;;5043499;28;19963;-70
2022/11/05 05:37:19;;;;;;;;;;;30.90;64.60;;;;;;5042556;28;19967;-69
2022/11/05 05:39:47;;;;;;;;;;;30.50;64.70;;;;;;5043248;28;19912;-70
2022/11/05 05:42:14;;;;;;;;;;;30.30;63.40;;;;;;5042524;28;19913;-69
2022/11/05 05:44:40;;;;;;;;;;;30.40;62.30;;;;;;5043024;28;19959;-72
2022/11/05 05:47:07;;;;;;;;;;;30.60;63.00;;;;;;5042633;28;20346;-70
2022/11/05 05:49:33;;;;;;;;;;;30.30;62.90;;;;;;5041675;28;20254;-71
2022/11/05 05:52:00;;;;;;;;;;;30.00;63.50;;;;;;5024439;28;19909;-72
2022/11/05 05:54:27;;;;;;;;;;;29.40;64.00;;;;;;5040628;28;20282;-72
2022/11/05 05:56:53;;;;;;;;;;;29.90;64.90;;;;;;5034363;28;19912;-72
2022/11/05 05:59:20;;;;;;;;;;;30.70;64.50;;;;;;5042526;28;19908;-70
2022/11/05 06:01:47;;;;;;;;;;;31.00;63.10;;;;;;5022348;28;20467;-70
2022/11/05 06:04:13;;;;;;;;;;;31.30;63.20;;;;;;5022443;28;19921;-71
2022/11/05 06:06:40;;;;;;;;;;;31.90;63.70;;;;;;5028274;28;19913;-71
2022/11/05 06:09:07;;;;;;;;;;;31.70;63.20;;;;;;5042577;28;19913;-70
2022/11/05 06:11:34;;;;;;;;;;;31.60;63.20;;;;;;5021190;28;20501;-70
2022/11/05 06:14:01;;;;;;;;;;;31.10;64.00;;;;;;5022080;28;20026;-69
2022/11/05 06:16:28;;;;;;;;;;;30.20;65.00;;;;;;5022793;28;19913;-72
2022/11/05 06:18:54;;;;;;;;;;;29.40;66.50;;;;;;5022567;28;19909;-70
2022/11/05 06:21:21;;;;;;;;;;;28.80;67.90;;;;;;5021014;28;20423;-69
2022/11/05 06:23:48;;;;;;;;;;;28.20;68.70;;;;;;5021268;28;19917;-71
2022/11/05 06:26:16;;;;;;;;;;;27.50;70.30;;;;;;5003800;28;20016;-72
2022/11/05 06:28:43;;;;;;;;;;;26.80;71.90;;;;;;5020723;28;19949;-69
2022/11/05 06:31:10;;;;;;;;;;;26.00;74.10;;;;;;5020736;28;20322;-70
2022/11/05 06:33:37;;;;;;;;;;;25.50;74.60;;;;;;5020424;28;19954;-70
2022/11/05 06:36:04;;;;;;;;;;;25.20;76.90;;;;;;5020596;28;19913;-70
2022/11/05 06:38:32;;;;;;;;;;;25.30;76.20;;;;;;5003561;28;19967;-70
2022/11/05 06:40:59;;;;;;;;;;;24.90;75.30;;;;;;5021372;28;19909;-68
2022/11/05 06:43:26;;;;;;;;;;;24.30;77.30;;;;;;5021330;28;19996;-69
2022/11/05 06:45:53;;;;;;;;;;;23.90;78.00;;;;;;5022082;28;20022;-69
2022/11/05 06:48:19;;;;;;;;;;;23.70;78.50;;;;;;5035678;28;19927;-68
2022/11/05 06:50:46;;;;;;;;;;;23.70;78.60;;;;;;5039480;28;19939;-68
2022/11/05 06:53:13;;;;;;;;;;;23.60;78.00;;;;;;5041339;28;19982;-69
2022/11/05 06:55:40;;;;;;;;;;;23.60;77.30;;;;;;5023767;28;19914;-67
2022/11/05 06:58:07;;;;;;;;;;;23.30;78.40;;;;;;5042211;28;19915;-69
2022/11/05 07:00:33;;;;;;;;;;;23.00;79.40;;;;;;5024114;28;20251;-70
2022/11/05 07:03:06;;;;;;;;;;;23.00;79.50;;;;;;5042051;28;20358;-68
2022/11/05 07:05:34;;;;;;;;;;;22.90;80.50;;;;;;5041885;28;19955;-69
2022/11/05 07:08:01;;;;;;;;;;;22.80;81.90;;;;;;5022815;28;19917;-68
2022/11/05 07:10:27;;;;;;;;;;;22.90;82.20;;;;;;5021217;28;19909;-71
2022/11/05 07:12:54;;;;;;;;;;;22.50;82.20;;;;;;5022015;28;19909;-67
2022/11/05 07:15:21;;;;;;;;;;;22.30;83.00;;;;;;5022217;28;19913;-71
2022/11/05 07:17:47;;;;;;;;;;;22.30;83.90;;;;;;5039802;28;19921;-70
2022/11/05 07:20:14;;;;;;;;;;;22.20;84.40;;;;;;5021191;28;19959;-70
2022/11/05 07:22:41;;;;;;;;;;;22.00;84.80;;;;;;5022527;28;20195;-69
2022/11/05 07:25:08;;;;;;;;;;;21.90;84.90;;;;;;5027285;28;20344;-70
2022/11/05 07:27:39;;;;;;;;;;;21.80;84.90;;;;;;5010742;28;19913;-68
2022/11/05 07:30:09;;;;;;;;;;;21.80;85.00;;;;;;5034527;28;19924;-68
2022/11/05 07:32:39;;;;;;;;;;;21.70;85.30;;;;;;5040026;28;19909;-68
2022/11/05 07:35:07;;;;;;;;;;;21.60;84.70;;;;;;5040197;28;19917;-69
2022/11/05 07:37:40;;;;;;;;;;;21.60;84.10;;;;;;5039767;28;19913;-67
2022/11/05 07:40:08;;;;;;;;;;;21.50;84.60;;;;;;5039730;28;19921;-68
2022/11/05 07:42:34;;;;;;;;;;;21.40;85.20;;;;;;5040036;28;19916;-68
2022/11/05 07:45:01;;;;;;;;;;;21.30;86.20;;;;;;5039924;28;20769;-69
2022/11/05 07:47:28;;;;;;;;;;;21.10;87.10;;;;;;5040304;28;20293;-70
2022/11/05 07:49:55;;;;;;;;;;;21.10;88.00;;;;;;5022616;28;19944;-68
2022/11/05 07:52:21;;;;;;;;;;;21.00;88.10;;;;;;5043909;28;19919;-70
2022/11/05 07:54:48;;;;;;;;;;;21.00;88.40;;;;;;5052876;28;19921;-71
2022/11/05 07:57:15;;;;;;;;;;;21.00;88.80;;;;;;5038123;28;19971;-68
2022/11/05 07:59:41;;;;;;;;;;;20.90;87.70;;;;;;5049168;28;20366;-69
2022/11/05 08:02:10;;;;;;;;;;;20.70;88.10;;;;;;5022071;28;19908;-69
2022/11/05 08:04:39;;;;;;;;;;;20.70;87.60;;;;;;5039661;28;19913;-69
2022/11/05 08:07:05;;;;;;;;;;;20.60;86.70;;;;;;5025596;28;19914;-69
2022/11/05 08:09:32;;;;;;;;;;;20.50;86.50;;;;;;5020065;28;20297;-72
2022/11/05 08:11:59;;;;;;;;;;;20.40;86.60;;;;;;5021213;28;20018;-70
2022/11/05 08:14:25;;;;;;;;;;;20.40;84.80;;;;;;5022147;28;19927;-69
2022/11/05 08:16:52;;;;;;;;;;;20.30;84.80;;;;;;5022240;28;19912;-71
2022/11/05 08:19:19;;;;;;;;;;;20.20;85.60;;;;;;5040331;28;20374;-68
2022/11/05 08:21:45;;;;;;;;;;;20.30;86.10;;;;;;5040137;28;20296;-71
2022/11/05 08:24:12;;;;;;;;;;;20.20;86.90;;;;;;5039207;28;19913;-68
2022/11/05 08:26:38;;;;;;;;;;;20.10;87.60;;;;;;5025635;28;19913;-70
2022/11/05 08:29:05;;;;;;;;;;;20.00;88.00;;;;;;5042330;28;19908;-68
2022/11/05 08:31:32;;;;;;;;;;;19.90;88.30;;;;;;5060047;28;19920;-68
2022/11/05 08:33:59;;;;;;;;;;;19.90;88.60;;;;;;5041703;28;20019;-68
2022/11/05 08:36:25;;;;;;;;;;;19.80;89.10;;;;;;5032343;28;19952;-68
2022/11/05 08:38:52;;;;;;;;;;;19.80;89.70;;;;;;5039916;28;19909;-68
2022/11/05 08:41:18;;;;;;;;;;;19.70;89.20;;;;;;5037869;28;19913;-68
2022/11/05 08:43:45;;;;;;;;;;;19.70;88.90;;;;;;5036850;28;20375;-69
2022/11/05 08:46:12;;;;;;;;;;;19.70;88.90;;;;;;5038880;28;20000;-68
2022/11/05 08:48:38;;;;;;;;;;;19.70;89.70;;;;;;5040418;28;19944;-69
2022/11/05 08:51:05;;;;;;;;;;;19.60;88.80;;;;;;5039237;28;20007;-69
2022/11/05 08:53:32;;;;;;;;;;;19.60;89.50;;;;;;5041640;28;20223;-69
2022/11/05 08:55:59;;;;;;;;;;;19.70;88.60;;;;;;5044037;28;19909;-69
2022/11/05 08:58:26;;;;;;;;;;;19.60;88.60;;;;;;5042842;28;19948;-69
2022/11/05 09:00:52;;;;;;;;;;;19.60;88.60;;;;;;5043672;28;20351;-68
2022/11/05 09:03:19;;;;;;;;;;;19.50;89.00;;;;;;5041547;28;19913;-66
2022/11/05 09:05:46;;;;;;;;;;;19.50;89.20;;;;;;5042913;28;19916;-70
2022/11/05 09:08:17;;;;;;;;;;;19.50;89.20;;;;;;5042640;28;19999;-69
2022/11/05 09:10:44;;;;;;;;;;;19.50;89.70;;;;;;5042658;28;19999;-69
2022/11/05 09:13:11;;;;;;;;;;;19.50;90.00;;;;;;5034202;28;19966;-70
2022/11/05 09:15:39;;;;;;;;;;;19.40;90.10;;;;;;5042525;28;20268;-68
2022/11/05 09:18:06;;;;;;;;;;;19.40;90.20;;;;;;5006479;28;20388;-69
2022/11/05 09:20:35;;;;;;;;;;;19.40;90.30;;;;;;5027709;28;19917;-68
2022/11/05 09:23:02;;;;;;;;;;;19.30;90.60;;;;;;5025447;28;19916;-69
2022/11/05 09:25:28;;;;;;;;;;;19.30;90.80;;;;;;5042708;28;19940;-68
2022/11/05 09:28:04;;;;;;;;;;;19.30;91.00;;;;;;5043411;28;19974;-67
2022/11/05 09:30:31;;;;;;;;;;;19.30;91.10;;;;;;5042467;28;19962;-68
2022/11/05 09:32:58;;;;;;;;;;;20.00;91.40;;;;;;5043703;28;19909;-69
2022/11/05 09:35:25;;;;;;;;;;;19.30;91.30;;;;;;5008454;28;19931;-67
2022/11/05 09:37:55;;;;;;;;;;;19.20;91.50;;;;;;5005365;28;19909;-68
2022/11/05 09:40:21;;;;;;;;;;;19.20;91.80;;;;;;5021974;28;19916;-69
2022/11/05 09:42:51;;;;;;;;;;;19.20;91.70;;;;;;5039991;28;19991;-68
2022/11/05 09:45:22;;;;;;;;;;;19.20;91.80;;;;;;5037583;28;19920;-68
2022/11/05 09:47:51;;;;;;;;;;;19.20;91.80;;;;;;5042815;28;19935;-68
2022/11/05 09:50:23;;;;;;;;;;;19.20;91.70;;;;;;5042594;28;20365;-67
2022/11/05 09:52:50;;;;;;;;;;;19.20;92.00;;;;;;5041997;28;19920;-68
2022/11/05 09:55:23;;;;;;;;;;;19.20;92.00;;;;;;5042264;28;19925;-68
2022/11/05 09:57:52;;;;;;;;;;;19.20;92.00;;;;;;5042671;28;19955;-67
2022/11/05 10:00:19;;;;;;;;;;;19.20;91.90;;;;;;5036983;28;19921;-67
2022/11/05 10:03:12;;;;;;;;;;;19.20;92.00;;;;;;5038241;28;19956;-67
2022/11/05 10:05:39;;;;;;;;;;;19.20;92.30;;;;;;5037005;28;20396;-66
2022/11/05 10:08:32;;;;;;;;;;;19.20;92.40;;;;;;5042930;28;19909;-66
2022/11/05 10:11:02;;;;;;;;;;;19.20;92.30;;;;;;5032431;28;19943;-66
2022/11/05 10:13:50;;;;;;;;;;;19.20;92.60;;;;;;5040508;28;19927;-69
2022/11/05 10:16:29;;;;;;;;;;;19.20;92.50;;;;;;5029607;28;20321;-65
2022/11/05 10:19:15;;;;;;;;;;;19.10;92.80;;;;;;5021434;28;19940;-68
2022/11/05 10:21:42;;;;;;;;;;;19.10;92.70;;;;;;5030092;28;19921;-67
2022/11/05 10:24:12;;;;;;;;;;;19.20;92.70;;;;;;5041327;28;20961;-68
2022/11/05 10:26:39;;;;;;;;;;;19.20;92.60;;;;;;5040663;28;19919;-66
2022/11/05 10:29:06;;;;;;;;;;;19.20;92.60;;;;;;5035445;28;19913;-67
2022/11/05 10:31:35;;;;;;;;;;;19.20;92.80;;;;;;5040044;28;19913;-67
2022/11/05 10:34:04;;;;;;;;;;;19.10;93.10;;;;;;5040363;28;19917;-69
2022/11/05 10:36:33;;;;;;;;;;;19.20;93.00;;;;;;5040048;28;19916;-67
2022/11/05 10:39:01;;;;;;;;;;;19.10;92.90;;;;;;5040962;28;19935;-68
2022/11/05 10:41:41;;;;;;;;;;;19.10;93.00;;;;;;5040687;28;20300;-68
2022/11/05 10:44:15;;;;;;;;;;;19.10;92.90;;;;;;5040864;28;19944;-66
2022/11/05 10:46:59;;;;;;;;;;;19.10;92.90;;;;;;5028705;28;19912;-67
2022/11/05 10:49:51;;;;;;;;;;;19.00;93.00;;;;;;5023494;28;19936;-68
2022/11/05 10:52:22;;;;;;;;;;;19.00;93.00;;;;;;5041685;28;19920;-69
2022/11/05 10:54:50;;;;;;;;;;;18.90;93.20;;;;;;5019933;28;19924;-67
2022/11/05 10:57:28;;;;;;;;;;;18.90;93.50;;;;;;5033310;28;20370;-65
2022/11/05 11:00:17;;;;;;;;;;;19.00;93.60;;;;;;5041122;28;19913;-68
2022/11/05 11:02:46;;;;;;;;;;;19.00;93.70;;;;;;5039632;28;19909;-67
2022/11/05 11:05:20;;;;;;;;;;;18.90;93.40;;;;;;5041946;28;19920;-67
2022/11/05 11:07:55;;;;;;;;;;;18.90;93.50;;;;;;5040610;28;19919;-69
2022/11/05 11:10:22;;;;;;;;;;;18.80;94.00;;;;;;5041620;28;19908;-69
2022/11/05 11:12:49;;;;;;;;;;;18.80;94.30;;;;;;5040050;28;20365;-69
2022/11/05 11:15:19;;;;;;;;;;;18.80;94.20;;;;;;5040810;28;19923;-69
2022/11/05 11:17:46;;;;;;;;;;;18.80;94.40;;;;;;5031278;28;19924;-65
2022/11/05 11:20:15;;;;;;;;;;;18.80;94.60;;;;;;5030022;28;19944;-68
2022/11/05 11:22:46;;;;;;;;;;;18.80;94.70;;;;;;5033670;28;19944;-66
2022/11/05 11:25:23;;;;;;;;;;;18.80;94.50;;;;;;5027963;28;19912;-67
2022/11/05 11:27:50;;;;;;;;;;;18.80;94.90;;;;;;5028151;28;19956;-69
2022/11/05 11:30:18;;;;;;;;;;;18.80;95.20;;;;;;5036554;28;19916;-69
2022/11/05 11:32:45;;;;;;;;;;;18.80;95.00;;;;;;5040048;28;19913;-67
2022/11/05 11:35:20;;;;;;;;;;;18.80;95.10;;;;;;5035524;28;19925;-67
2022/11/05 11:37:47;;;;;;;;;;;18.70;95.50;;;;;;5040504;28;19936;-69
2022/11/05 11:40:29;;;;;;;;;;;18.80;95.40;;;;;;5040923;28;19909;-66
2022/11/05 11:43:02;;;;;;;;;;;18.70;95.40;;;;;;5040040;28;19913;-69
2022/11/05 11:45:45;;;;;;;;;;;18.70;95.70;;;;;;5030846;28;20184;-68
2022/11/05 11:48:16;;;;;;;;;;;18.70;95.80;;;;;;5020639;28;20373;-68
2022/11/05 11:50:43;;;;;;;;;;;18.60;96.10;;;;;;5040112;28;19913;-69
2022/11/05 11:53:19;;;;;;;;;;;18.60;96.30;;;;;;5040391;28;20281;-68
2022/11/05 11:55:55;;;;;;;;;;;18.60;96.40;;;;;;5040219;28;19916;-68
2022/11/05 11:58:24;;;;;;;;;;;18.60;96.80;;;;;;5040276;28;19913;-70
2022/11/05 12:01:01;;;;;;;;;;;18.50;96.90;;;;;;5038516;28;19916;-69
2022/11/05 12:03:32;;;;;;;;;;;18.50;96.90;;;;;;5040538;28;19913;-67
2022/11/05 12:05:59;;;;;;;;;;;18.40;97.30;;;;;;5026820;28;19970;-68
2022/11/05 12:08:32;;;;;;;;;;;18.40;97.40;;;;;;5030701;28;19912;-69
2022/11/05 12:11:04;;;;;;;;;;;18.30;97.70;;;;;;5028392;28;19920;-70
2022/11/05 12:13:51;;;;;;;;;;;18.30;98.00;;;;;;5032196;28;19928;-69
2022/11/05 12:16:20;;;;;;;;;;;18.20;98.10;;;;;;5018724;28;19935;-69
2022/11/05 12:19:02;;;;;;;;;;;18.10;98.50;;;;;;5037482;28;19936;-70
2022/11/05 12:21:48;;;;;;;;;;;18.10;98.90;;;;;;5054122;22;20035;-72
2022/11/05 12:24:14;;;;;;;;;;;18.10;98.90;;;;;;5040134;28;19913;-72
2022/11/05 12:26:47;;;;;;;;;;;18.00;99.00;;;;;;5040068;28;19915;-71
2022/11/05 12:29:20;;;;;;;;;;;18.00;99.30;;;;;;5044439;28;20667;-72
2022/11/05 12:31:49;;;;;;;;;;;18.00;99.70;;;;;;5044624;28;19924;-71
2022/11/05 12:34:30;;;;;;;;;;;17.90;99.70;;;;;;5044313;28;19924;-71
2022/11/05 12:37:03;;;;;;;;;;;17.80;99.80;;;;;;5043505;28;19916;-72
2022/11/05 12:39:39;;;;;;;;;;;17.80;99.90;;;;;;5044675;28;19962;-72
2022/11/05 12:42:44;;;;;;;;;;;17.80;99.90;;;;;;5043468;28;19909;-71
2022/11/05 12:45:16;;;;;;;;;;;17.80;99.90;;;;;;5001589;28;19968;-70
2022/11/05 12:47:55;;;;;;;;;;;17.80;99.90;;;;;;4986024;28;19913;-70
2022/11/05 12:50:39;;;;;;;;;;;17.80;99.90;;;;;;5027634;28;19908;-71
2022/11/05 12:53:08;;;;;;;;;;;17.80;99.90;;;;;;5043461;28;19948;-70
2022/11/05 12:55:39;;;;;;;;;;;17.80;99.90;;;;;;5044477;28;19999;-71
2022/11/05 12:58:25;;;;;;;;;;;17.70;99.90;;;;;;5043551;28;20002;-71
2022/11/05 13:00:55;;;;;;;;;;;17.70;99.90;;;;;;5044587;28;19951;-70
2022/11/05 13:03:41;;;;;;;;;;;17.70;99.90;;;;;;5044113;28;19909;-70
2022/11/05 13:06:13;;;;;;;;;;;17.60;99.90;;;;;;5042864;28;20177;-70
2022/11/05 13:08:47;;;;;;;;;;;17.60;99.90;;;;;;5044194;28;19959;-71
2022/11/05 13:11:28;;;;;;;;;;;17.50;99.90;;;;;;5043156;28;20343;-70
2022/11/05 13:14:08;;;;;;;;;;;17.50;99.90;;;;;;5043378;28;19917;-71
2022/11/05 13:16:52;;;;;;;;;;;17.50;99.90;;;;;;5024590;28;19917;-71
2022/11/05 13:19:19;;;;;;;;;;;17.40;99.90;;;;;;5024017;28;20056;-71
2022/11/05 13:21:50;;;;;;;;;;;17.40;99.90;;;;;;5006640;28;19921;-71
2022/11/05 13:24:22;;;;;;;;;;;17.40;99.90;;;;;;5023300;28;19909;-71
2022/11/05 13:26:55;;;;;;;;;;;17.40;99.90;;;;;;5023729;28;19920;-72
2022/11/05 13:29:37;;;;;;;;;;;17.30;99.90;;;;;;5023610;28;20309;-73
2022/11/05 13:32:11;;;;;;;;;;;17.30;99.90;;;;;;5023360;28;19920;-70
2022/11/05 13:34:38;;;;;;;;;;;17.20;99.90;;;;;;5023912;28;20332;-70
2022/11/05 13:39:58;;;;;;;;;;;17.20;99.90;;;;;;5023911;28;20274;-70
2022/11/05 13:42:27;;;;;;;;;;;17.20;99.90;;;;;;5023466;28;19939;-69
2022/11/05 13:45:00;;;;;;;;;;;17.20;99.90;;;;;;5023700;28;19909;-71
2022/11/05 13:47:39;;;;;;;;;;;17.10;99.90;;;;;;5022672;28;19909;-71
2022/11/05 13:50:23;;;;;;;;;;;17.10;99.90;;;;;;5023896;28;19952;-70
2022/11/05 13:53:08;;;;;;;;;;;17.10;99.90;;;;;;5023686;28;19909;-69
2022/11/05 13:55:57;;;;;;;;;;;17.00;99.90;;;;;;5022709;28;20012;-70
2022/11/05 13:58:42;;;;;;;;;;;17.10;99.90;;;;;;5012113;28;19916;-70
2022/11/05 14:01:27;;;;;;;;;;;17.00;99.90;;;;;;5023457;28;19914;-70
2022/11/05 14:03:55;;;;;;;;;;;17.00;99.90;;;;;;5024093;28;19909;-70
2022/11/05 14:06:24;;;;;;;;;;;17.00;99.90;;;;;;5022357;28;20377;-71
2022/11/05 14:08:50;;;;;;;;;;;17.00;99.90;;;;;;5023325;28;19975;-71
2022/11/05 14:11:20;;;;;;;;;;;17.00;99.90;;;;;;5022800;28;20469;-70
2022/11/05 14:13:49;;;;;;;;;;;16.90;99.90;;;;;;5023273;28;19917;-69
2022/11/05 14:16:20;;;;;;;;;;;16.90;99.90;;;;;;5023606;28;19917;-71
2022/11/05 14:18:55;;;;;;;;;;;16.80;99.90;;;;;;5023535;28;19959;-72
2022/11/05 14:21:29;;;;;;;;;;;16.80;99.90;;;;;;5022131;28;20285;-70
2022/11/05 14:23:56;;;;;;;;;;;16.80;99.90;;;;;;5022870;28;19917;-71
2022/11/05 14:26:24;;;;;;;;;;;16.70;99.90;;;;;;5021091;28;19955;-71
2022/11/05 14:29:03;;;;;;;;;;;16.80;99.90;;;;;;5022727;28;20008;-71
2022/11/05 14:31:31;;;;;;;;;;;16.70;99.90;;;;;;5022006;28;19917;-71
2022/11/05 14:34:10;;;;;;;;;;;16.70;99.90;;;;;;5023036;28;19921;-70
2022/11/05 14:36:44;;;;;;;;;;;16.70;99.90;;;;;;5021655;28;19923;-70
2022/11/05 14:39:16;;;;;;;;;;;16.60;99.90;;;;;;5022527;28;19932;-70
2022/11/05 14:41:52;;;;;;;;;;;16.70;99.90;;;;;;5021995;28;20382;-69
2022/11/05 14:44:19;;;;;;;;;;;16.60;99.90;;;;;;5022563;28;20417;-71
2022/11/05 14:46:48;;;;;;;;;;;16.60;99.90;;;;;;5022677;28;19932;-70
2022/11/05 14:49:20;;;;;;;;;;;16.60;99.90;;;;;;5023047;28;19909;-70
2022/11/05 14:51:51;;;;;;;;;;;16.60;99.90;;;;;;5021818;28;20399;-70
2022/11/05 14:54:21;;;;;;;;;;;16.50;99.90;;;;;;5022601;28;19917;-70
2022/11/05 14:56:50;;;;;;;;;;;16.50;99.90;;;;;;5022224;28;19954;-72
2022/11/05 14:59:20;;;;;;;;;;;16.40;99.90;;;;;;5022461;28;19913;-71
2022/11/05 15:01:47;;;;;;;;;;;16.40;99.90;;;;;;5003608;28;19910;-70
2022/11/05 15:04:17;;;;;;;;;;;16.40;99.90;;;;;;5021326;28;19920;-70
2022/11/05 15:07:05;;;;;;;;;;;16.40;99.90;;;;;;5021093;28;19936;-69
2022/11/05 15:09:31;;;;;;;;;;;16.40;99.90;;;;;;5022534;28;20254;-69
2022/11/05 15:12:16;;;;;;;;;;;16.30;99.90;;;;;;5021124;28;19956;-70
2022/11/05 15:14:53;;;;;;;;;;;16.40;99.90;;;;;;5021405;28;19948;-71
2022/11/05 15:17:25;;;;;;;;;;;16.30;99.90;;;;;;5022328;28;19913;-70